Aviation Digital Data Service (ADDS)

Output produced by TAFs form (0402 UTC 17 August 2017)
found at http://www.aviationweather.gov/adds/tafs/
 
KAPA 170353Z 00000KT 10SM FEW120 17/08 A3021 RMK AO2 SLP177 T01670078
KAPA 162337Z 1700/1724 36008KT P6SM FEW070 SCT120 
     FM170200 16008KT P6SM SCT120 
     FM170500 19010KT P6SM FEW200 
     FM171500 24006KT P6SM FEW110 
     FM171900 36006KT P6SM SCT090 SCT130